createdAt,value
2023-04-23T00:03:27.392Z,100569.63
2023-04-23T00:08:29.707Z,100561.75
2023-04-23T00:13:31.725Z,100559.69
2023-04-23T00:18:33.321Z,100557.94
2023-04-23T00:23:35.042Z,100560.38
2023-04-23T00:28:36.726Z,100554.53
2023-04-23T00:33:38.642Z,100555.97
2023-04-23T00:38:40.301Z,100553.38
2023-04-23T00:43:42.624Z,100537.81
2023-04-23T00:48:46.270Z,100535.75
2023-04-23T00:53:48.055Z,100521.84
2023-04-23T00:58:51.689Z,100521.84
2023-04-23T01:03:54.082Z,100521.31
2023-04-23T01:08:57.024Z,100514.44
2023-04-23T01:13:59.439Z,100509.28
2023-04-23T01:19:02.246Z,100500.34
2023-04-23T01:24:06.155Z,100502.22
2023-04-23T01:29:08.125Z,100491.28
2023-04-23T01:34:10.562Z,100482.72
2023-04-23T01:39:14.928Z,100488.69
2023-04-23T01:44:17.826Z,100477.41
2023-04-23T01:49:19.453Z,100472.41
2023-04-23T01:54:21.261Z,100476.34
2023-04-23T01:59:24.920Z,100471.88
2023-04-23T02:04:29.752Z,100467.91
2023-04-23T02:09:31.443Z,100461.06
2023-04-23T02:14:36.304Z,100449.06
2023-04-23T02:19:37.900Z,100467.91
2023-04-23T02:24:42.739Z,100444.38
2023-04-23T02:29:44.529Z,100446.94
2023-04-23T02:34:46.623Z,100445.53
2023-04-23T02:39:48.231Z,100444.31
2023-04-23T02:44:49.842Z,100437.41
2023-04-23T02:49:51.511Z,100434.56
2023-04-23T02:54:53.316Z,100447.41
2023-04-23T02:59:55.194Z,100449.06
2023-04-23T03:05:04.321Z,100457.81
2023-04-23T03:10:06.835Z,100458.88
2023-04-23T03:15:09.457Z,100448.56
2023-04-23T03:20:14.608Z,100445.25
2023-04-23T03:25:16.506Z,100437.63
2023-04-23T03:30:18.963Z,100436.13
2023-04-23T03:35:20.811Z,100437.47
2023-04-23T03:40:24.326Z,100434.88
2023-04-23T03:45:31.017Z,100421.47
2023-04-23T03:50:35.801Z,100419.66
2023-04-23T03:55:47.163Z,100423.41
2023-04-23T04:00:49.959Z,100412.09
2023-04-23T04:05:51.587Z,100411.94
2023-04-23T04:10:53.368Z,100430.78
2023-04-23T04:15:55.162Z,100432.88
2023-04-23T04:20:56.938Z,100421.66
2023-04-23T04:25:59.926Z,100416.13
2023-04-23T04:31:02.152Z,100417.47
2023-04-23T04:36:05.199Z,100406.53
2023-04-23T04:41:07.731Z,100411.97
2023-04-23T04:46:11.844Z,100411.84
2023-04-23T04:51:13.503Z,100410.81
2023-04-23T04:56:15.195Z,100410.44
2023-04-23T05:01:18.271Z,100413.84
2023-04-23T05:06:19.928Z,100414.19
2023-04-23T05:11:21.525Z,100409.72
2023-04-23T05:16:24.074Z,100406.97
2023-04-23T05:21:27.610Z,100405.72
2023-04-23T05:26:29.524Z,100418.75
2023-04-23T05:31:34.100Z,100421.00
2023-04-23T05:36:36.564Z,100417.03
2023-04-23T05:41:38.416Z,100404.81
2023-04-23T05:46:40.138Z,100404.47
2023-04-23T05:51:41.787Z,100409.97
2023-04-23T05:56:43.523Z,100413.31
2023-04-23T06:01:45.270Z,100396.84
2023-04-23T06:06:46.892Z,100399.03
2023-04-23T06:11:50.591Z,100397.28
2023-04-23T06:16:52.770Z,100400.63
2023-04-23T06:21:54.548Z,100400.94
2023-04-23T06:26:56.342Z,100410.13
2023-04-23T06:32:02.803Z,100396.13
2023-04-23T06:37:05.008Z,100399.44
2023-04-23T06:42:06.768Z,100392.38
2023-04-23T06:47:17.998Z,100382.81
2023-04-23T06:52:19.592Z,100378.78
2023-04-23T06:57:21.950Z,100376.78
2023-04-23T07:02:24.729Z,100384.91
2023-04-23T07:07:26.424Z,100385.75
2023-04-23T07:12:28.003Z,100386.09
2023-04-23T07:17:29.632Z,100381.63
2023-04-23T07:22:31.330Z,100372.34
2023-04-23T07:27:32.925Z,100369.53
2023-04-23T07:32:34.706Z,100369.28
2023-04-23T07:37:37.200Z,100369.69
2023-04-23T07:42:42.913Z,100363.84
2023-04-23T07:47:48.086Z,100375.78
2023-04-23T07:52:49.807Z,100368.63
2023-04-23T07:57:51.403Z,100364.19
2023-04-23T08:02:53.915Z,100365.88
2023-04-23T08:07:55.924Z,100355.38
2023-04-23T08:12:57.549Z,100338.91
2023-04-23T08:17:59.148Z,100341.19
2023-04-23T08:23:00.986Z,100347.13
2023-04-23T08:28:03.860Z,100347.34
2023-04-23T08:33:05.604Z,100334.25
2023-04-23T08:38:07.219Z,100340.09
2023-04-23T08:43:20.694Z,100346.50
2023-04-23T08:48:22.623Z,100340.72
2023-04-23T08:53:29.312Z,100345.16
2023-04-23T08:58:31.591Z,100337.53
2023-04-23T09:03:33.714Z,100343.03
2023-04-23T09:08:35.749Z,100340.47
2023-04-23T09:13:37.497Z,100335.81
2023-04-23T09:18:39.707Z,100341.91
2023-04-23T09:23:42.514Z,100339.56
2023-04-23T09:28:44.169Z,100332.31
2023-04-23T09:33:57.024Z,100334.44
2023-04-23T09:38:59.226Z,100336.56
2023-04-23T09:44:00.893Z,100331.69
2023-04-23T09:49:04.237Z,100336.06
2023-04-23T09:54:12.812Z,100328.63
2023-04-23T09:59:35.588Z,100319.38
2023-04-23T10:04:45.321Z,100316.59
2023-04-23T10:09:47.820Z,100318.31
2023-04-23T10:14:53.805Z,100308.31
2023-04-23T10:19:55.919Z,100305.56
2023-04-23T10:24:59.841Z,100310.03
2023-04-23T10:30:05.484Z,100289.13
2023-04-23T10:35:09.344Z,100296.81
2023-04-23T10:40:15.309Z,100272.94
2023-04-23T10:50:27.671Z,100285.03
2023-04-23T10:55:31.242Z,100261.00
2023-04-23T11:00:41.813Z,100260.34
2023-04-23T11:05:46.528Z,100264.16
2023-04-23T11:10:59.497Z,100256.22
2023-04-23T11:16:21.588Z,100263.31
2023-04-23T11:21:24.381Z,100251.84
2023-04-23T11:26:29.921Z,100241.28
2023-04-23T11:31:32.928Z,100237.38
2023-04-23T11:36:34.828Z,100238.69
2023-04-23T11:41:37.032Z,100218.47
2023-04-23T11:46:38.827Z,100217.94
2023-04-23T11:51:45.059Z,100218.31
2023-04-23T11:56:46.817Z,100201.28
2023-04-23T12:01:57.113Z,100197.16
2023-04-23T12:06:59.516Z,100189.69
2023-04-23T12:12:01.530Z,100185.50
2023-04-23T12:17:11.338Z,100182.06
2023-04-23T12:22:27.747Z,100167.19
2023-04-23T12:27:30.850Z,100160.09
2023-04-23T12:32:34.268Z,100156.53
2023-04-23T12:37:37.781Z,100157.78
2023-04-23T12:42:39.400Z,100151.75
2023-04-23T12:47:41.249Z,100142.75
2023-04-23T12:52:46.384Z,100136.22
2023-04-23T12:57:48.082Z,100115.50
2023-04-23T13:02:50.035Z,100117.72
2023-04-23T13:07:53.620Z,100115.72
2023-04-23T13:13:16.442Z,100108.03
2023-04-23T13:18:18.054Z,100110.19
2023-04-23T13:23:19.730Z,100103.47
2023-04-23T13:28:21.359Z,100110.56
2023-04-23T13:33:24.425Z,100136.88
2023-04-23T13:38:26.619Z,100115.50
2023-04-23T13:43:28.278Z,100116.19
2023-04-23T13:48:31.358Z,100107.00
2023-04-23T13:53:32.975Z,100100.06
2023-04-23T13:58:34.614Z,100099.66
2023-04-23T14:03:36.278Z,100094.31
2023-04-23T14:08:38.424Z,100100.72
2023-04-23T14:13:40.039Z,100116.88
2023-04-23T14:18:41.691Z,100104.53
2023-04-23T14:23:57.690Z,100090.91
2023-04-23T14:29:08.789Z,100079.03
2023-04-23T14:34:10.484Z,100079.59
2023-04-23T14:39:12.561Z,100075.94
2023-04-23T14:44:14.785Z,100071.78
2023-04-23T14:49:19.198Z,100062.22
2023-04-23T14:54:21.713Z,100066.53
2023-04-23T14:59:23.760Z,100065.22
2023-04-23T15:04:25.576Z,100059.56
2023-04-23T15:09:27.333Z,100052.94
2023-04-23T15:14:36.926Z,100040.84
2023-04-23T15:19:38.561Z,100030.22
2023-04-23T15:24:40.404Z,100023.88
2023-04-23T15:29:44.278Z,100031.53
2023-04-23T15:34:46.008Z,100029.19
2023-04-23T15:39:47.628Z,100029.47
2023-04-23T15:44:50.538Z,100026.91
2023-04-23T15:49:52.216Z,100028.41
2023-04-23T15:54:53.847Z,100023.94
2023-04-23T15:59:58.284Z,100006.97
2023-04-23T16:05:00.385Z,100006.56
2023-04-23T16:10:02.472Z,100001.41
2023-04-23T16:15:05.713Z,99997.22
2023-04-23T16:20:08.411Z,99990.03
2023-04-23T16:25:10.093Z,99981.34
2023-04-23T16:30:14.335Z,99967.94
2023-04-23T16:35:17.030Z,99960.72
2023-04-23T16:40:19.356Z,99951.81
2023-04-23T16:45:23.155Z,99957.97
2023-04-23T16:50:24.865Z,99951.81
2023-04-23T16:55:26.563Z,99943.97
2023-04-23T17:00:28.249Z,99931.25
2023-04-23T17:05:33.420Z,99923.84
2023-04-23T17:10:35.247Z,99907.06
2023-04-23T17:15:36.871Z,99900.94
2023-04-23T17:20:39.922Z,99897.53
2023-04-23T17:25:43.904Z,99886.97
2023-04-23T17:30:46.131Z,99882.94
2023-04-23T17:35:52.269Z,99867.22
2023-04-23T17:40:54.446Z,99858.31
2023-04-23T17:45:56.169Z,99855.94
2023-04-23T17:50:57.802Z,99848.09
2023-04-23T17:56:03.350Z,99840.22
2023-04-23T18:01:05.290Z,99820.50
2023-04-23T18:06:08.700Z,99814.34
2023-04-23T18:11:13.768Z,99797.41
2023-04-23T18:16:16.047Z,99776.34
2023-04-23T18:21:18.472Z,99775.34
2023-04-23T18:26:20.051Z,99772.16
2023-04-23T18:31:22.251Z,99766.03
2023-04-23T18:36:27.322Z,99764.31
2023-04-23T18:41:30.105Z,99759.44
2023-04-23T18:46:32.064Z,99750.94
2023-04-23T18:51:40.020Z,99743.50
2023-04-23T18:56:43.993Z,99735.06
2023-04-23T19:01:48.075Z,99727.41
2023-04-23T19:06:49.719Z,99729.97
2023-04-23T19:11:51.356Z,99728.91
2023-04-23T19:16:53.916Z,99727.63
2023-04-23T19:21:55.545Z,99715.75
2023-04-23T19:26:58.157Z,99728.75
2023-04-23T19:31:59.855Z,99734.91
2023-04-23T19:37:01.459Z,99723.25
2023-04-23T19:42:05.693Z,99715.63
2023-04-23T19:47:07.367Z,99710.56
2023-04-23T19:52:17.378Z,99711.19
2023-04-23T19:57:19.762Z,99713.31
2023-04-23T20:02:21.645Z,99700.34
2023-04-23T20:07:23.270Z,99704.63
2023-04-23T20:12:24.952Z,99693.56
2023-04-23T20:17:27.175Z,99694.88
2023-04-23T20:22:30.848Z,99684.88
2023-04-23T20:27:32.985Z,99683.78
2023-04-23T20:32:34.784Z,99684.16
2023-04-23T20:37:36.624Z,99675.75
2023-04-23T20:42:39.747Z,99674.75
2023-04-23T20:47:41.597Z,99667.03
2023-04-23T20:52:44.635Z,99661.09
2023-04-23T20:57:46.446Z,99651.72
2023-04-23T21:02:48.246Z,99657.28
2023-04-23T21:07:50.744Z,99646.06
2023-04-23T21:12:52.590Z,99637.97
2023-04-23T21:17:54.263Z,99636.53
2023-04-23T21:22:55.934Z,99628.03
2023-04-23T21:27:58.615Z,99620.75
2023-04-23T21:33:00.524Z,99617.38
2023-04-23T21:38:02.165Z,99619.66
2023-04-23T21:43:05.066Z,99618.78
2023-04-23T21:48:06.743Z,99611.59
2023-04-23T21:53:10.979Z,99606.84
2023-04-23T21:58:17.831Z,99608.44
2023-04-23T22:03:29.404Z,99601.06
2023-04-23T22:08:40.534Z,99608.44
2023-04-23T22:13:42.694Z,99609.47
2023-04-23T22:18:44.783Z,99605.19
2023-04-23T22:23:46.487Z,99600.63
2023-04-23T22:28:48.169Z,99601.25
2023-04-23T22:33:49.801Z,99608.09
2023-04-23T22:38:51.448Z,99607.19
2023-04-23T22:43:54.253Z,99609.88
2023-04-23T22:48:55.864Z,99619.13
2023-04-23T22:53:57.484Z,99619.28
2023-04-23T22:58:59.118Z,99629.91
2023-04-23T23:04:01.121Z,99628.75
2023-04-23T23:09:02.755Z,99645.72
2023-04-23T23:14:05.683Z,99650.81
2023-04-23T23:19:08.374Z,99652.31
2023-04-23T23:24:10.348Z,99655.53
2023-04-23T23:29:14.004Z,99656.81
2023-04-23T23:34:15.759Z,99656.16
2023-04-23T23:39:19.999Z,99661.88
2023-04-23T23:44:21.662Z,99672.25
2023-04-23T23:49:23.248Z,99678.59
2023-04-23T23:54:25.072Z,99679.91
2023-04-23T23:59:27.497Z,99677.97
